createdAt,value
2022-12-26T00:01:05.859Z,19.67
2022-12-26T00:03:33.043Z,19.30
2022-12-26T00:06:00.182Z,16.88
2022-12-26T00:08:27.334Z,18.40
2022-12-26T00:10:54.387Z,17.88
2022-12-26T00:13:38.241Z,16.63
2022-12-26T00:16:08.512Z,19.35
2022-12-26T00:18:35.707Z,18.23
2022-12-26T00:21:02.973Z,17.90
2022-12-26T00:23:32.414Z,18.95
2022-12-26T00:26:04.541Z,19.60
2022-12-26T00:28:31.949Z,15.95
2022-12-26T00:30:59.120Z,19.52
2022-12-26T00:33:27.519Z,15.77
2022-12-26T00:35:54.556Z,19.58
2022-12-26T00:38:21.688Z,18.80
2022-12-26T00:40:48.711Z,21.27
2022-12-26T00:43:15.813Z,21.27
2022-12-26T00:45:45.790Z,20.85
2022-12-26T00:48:12.812Z,16.40
2022-12-26T00:50:40.023Z,20.00
2022-12-26T00:53:07.158Z,19.92
2022-12-26T00:55:34.190Z,18.80
2022-12-26T00:58:01.289Z,20.45
2022-12-26T01:00:28.612Z,21.23
2022-12-26T01:02:55.953Z,20.88
2022-12-26T01:05:23.362Z,22.48
2022-12-26T01:08:19.831Z,18.00
2022-12-26T01:10:41.343Z,17.50
2022-12-26T01:13:08.790Z,18.63
2022-12-26T01:15:35.899Z,19.90
2022-12-26T01:18:03.660Z,19.30
2022-12-26T01:20:32.533Z,20.27
2022-12-26T01:22:59.686Z,18.77
2022-12-26T01:25:26.771Z,18.40
2022-12-26T01:27:53.843Z,21.58
2022-12-26T01:30:20.922Z,18.83
2022-12-26T01:32:48.015Z,18.63
2022-12-26T01:35:15.231Z,21.20
2022-12-26T01:37:42.431Z,18.63
2022-12-26T01:40:11.892Z,19.77
2022-12-26T01:42:40.375Z,19.17
2022-12-26T01:45:21.012Z,18.83
2022-12-26T01:47:55.484Z,18.98
2022-12-26T01:53:10.523Z,18.55
2022-12-26T01:55:39.328Z,18.02
2022-12-26T01:58:14.575Z,19.42
2022-12-26T02:00:42.065Z,18.60
2022-12-26T02:03:28.313Z,18.92
2022-12-26T02:05:58.911Z,18.83
2022-12-26T02:08:32.934Z,19.00
2022-12-26T02:11:24.159Z,18.02
2022-12-26T02:13:52.158Z,19.83
2022-12-26T02:16:19.815Z,20.83
2022-12-26T02:18:47.010Z,17.88
2022-12-26T02:21:31.980Z,19.60
2022-12-26T02:24:37.323Z,19.75
2022-12-26T02:27:35.467Z,16.60
2022-12-26T02:30:29.144Z,17.83
2022-12-26T02:33:08.180Z,18.05
2022-12-26T02:35:42.096Z,15.75
2022-12-26T02:38:24.030Z,18.55
2022-12-26T02:41:10.941Z,17.83
2022-12-26T02:44:00.966Z,18.20
2022-12-26T02:47:02.002Z,18.45
2022-12-26T02:50:22.579Z,19.10
2022-12-26T02:53:49.549Z,19.73
2022-12-26T02:56:45.262Z,16.80
2022-12-26T02:59:56.288Z,19.85
2022-12-26T03:03:06.331Z,22.13
2022-12-26T03:06:00.392Z,19.60
2022-12-26T03:08:56.669Z,16.75
2022-12-26T03:11:51.307Z,17.52
2022-12-26T03:14:24.164Z,17.13
2022-12-26T03:17:17.185Z,15.13
2022-12-26T03:20:02.387Z,20.38
2022-12-26T03:23:03.008Z,21.20
2022-12-26T03:26:01.215Z,20.33
2022-12-26T03:28:28.953Z,17.60
2022-12-26T03:30:58.764Z,16.35
2022-12-26T03:33:50.322Z,17.08
2022-12-26T03:36:40.563Z,19.73
2022-12-26T03:39:53.867Z,14.35
2022-12-26T03:43:10.369Z,14.75
2022-12-26T03:46:34.825Z,18.50
2022-12-26T03:49:35.926Z,16.60
2022-12-26T03:52:42.574Z,14.38
2022-12-26T03:55:56.026Z,17.48
2022-12-26T03:59:10.009Z,16.75
2022-12-26T04:01:59.826Z,15.15
2022-12-26T04:04:49.536Z,16.45
2022-12-26T04:07:56.081Z,16.60
2022-12-26T04:10:54.735Z,12.88
2022-12-26T04:13:54.773Z,11.23
2022-12-26T04:17:19.612Z,11.30
2022-12-26T04:20:14.034Z,10.77
2022-12-26T04:23:35.983Z,10.35
2022-12-26T04:26:29.656Z,9.82
2022-12-26T04:29:15.180Z,11.00
2022-12-26T04:32:20.943Z,10.05
2022-12-26T04:35:14.575Z,9.27
2022-12-26T04:38:03.530Z,9.18
2022-12-26T04:40:55.193Z,9.45
2022-12-26T04:43:48.431Z,10.18
2022-12-26T04:46:22.162Z,8.80
2022-12-26T04:49:10.129Z,8.88
2022-12-26T04:51:37.257Z,9.52
2022-12-26T04:54:05.658Z,10.65
2022-12-26T04:56:33.000Z,10.95
2022-12-26T04:59:00.064Z,9.90
2022-12-26T05:01:45.865Z,9.85
2022-12-26T05:04:33.788Z,9.85
2022-12-26T05:07:20.537Z,9.73
2022-12-26T05:09:51.999Z,10.10
2022-12-26T05:12:19.964Z,10.68
2022-12-26T05:14:47.135Z,10.02
2022-12-26T05:17:33.580Z,10.63
2022-12-26T05:20:19.299Z,10.27
2022-12-26T05:23:05.860Z,10.82
2022-12-26T05:25:54.966Z,9.90
2022-12-26T05:28:40.621Z,10.52
2022-12-26T05:31:09.263Z,10.85
2022-12-26T05:33:54.639Z,10.55
2022-12-26T05:36:24.809Z,10.93
2022-12-26T05:38:52.138Z,10.05
2022-12-26T05:41:19.201Z,9.80
2022-12-26T05:43:46.321Z,9.65
2022-12-26T05:46:14.242Z,9.25
2022-12-26T05:48:41.387Z,9.77
2022-12-26T05:51:08.565Z,9.63
2022-12-26T05:53:35.762Z,9.63
2022-12-26T05:56:15.429Z,9.77
2022-12-26T05:58:42.837Z,9.60
2022-12-26T06:01:14.117Z,8.68
2022-12-26T06:03:45.486Z,8.90
2022-12-26T06:06:13.132Z,8.35
2022-12-26T06:08:41.298Z,8.90
2022-12-26T06:11:10.998Z,9.32
2022-12-26T06:13:39.214Z,9.27
2022-12-26T06:16:08.650Z,8.77
2022-12-26T06:18:36.135Z,9.48
2022-12-26T06:21:16.368Z,9.00
2022-12-26T06:23:43.591Z,8.40
2022-12-26T06:26:12.792Z,8.63
2022-12-26T06:28:41.867Z,8.50
2022-12-26T06:31:23.046Z,8.73
2022-12-26T06:33:54.522Z,8.35
2022-12-26T06:36:23.277Z,7.97
2022-12-26T06:38:50.734Z,8.70
2022-12-26T06:41:19.787Z,7.88
2022-12-26T06:43:47.536Z,8.30
2022-12-26T06:46:18.032Z,8.10
2022-12-26T06:48:45.095Z,8.75
2022-12-26T06:51:14.907Z,8.73
2022-12-26T06:53:42.648Z,9.25
2022-12-26T06:56:15.590Z,9.57
2022-12-26T06:58:43.186Z,9.27
2022-12-26T07:01:16.732Z,10.07
2022-12-26T07:03:50.775Z,9.83
2022-12-26T07:06:29.693Z,9.60
2022-12-26T07:09:03.327Z,8.52
2022-12-26T07:11:33.499Z,9.75
2022-12-26T07:14:01.038Z,10.02
2022-12-26T07:16:28.495Z,9.20
2022-12-26T07:18:57.049Z,9.65
2022-12-26T07:21:25.814Z,8.63
2022-12-26T07:23:55.132Z,8.85
2022-12-26T07:26:23.538Z,10.27
2022-12-26T07:28:57.553Z,8.85
2022-12-26T07:31:25.705Z,8.02
2022-12-26T07:33:55.052Z,8.82
2022-12-26T07:36:25.189Z,8.70
2022-12-26T07:38:52.715Z,8.18
2022-12-26T07:41:42.890Z,8.30
2022-12-26T07:44:11.594Z,8.75
2022-12-26T07:46:38.765Z,9.00
2022-12-26T07:49:06.012Z,8.43
2022-12-26T07:51:33.155Z,8.98
2022-12-26T07:54:02.187Z,7.57
2022-12-26T07:56:34.828Z,8.57
2022-12-26T07:59:01.953Z,7.78
2022-12-26T08:01:29.071Z,8.40
2022-12-26T08:03:56.334Z,7.60
2022-12-26T08:06:23.772Z,8.00
2022-12-26T08:08:51.627Z,7.50
2022-12-26T08:11:22.705Z,7.43
2022-12-26T08:13:50.673Z,7.07
2022-12-26T08:16:17.881Z,7.10
2022-12-26T08:18:45.083Z,7.68
2022-12-26T08:21:12.925Z,7.30
2022-12-26T08:23:40.118Z,6.90
2022-12-26T08:26:09.521Z,7.30
2022-12-26T08:28:36.632Z,8.18
2022-12-26T08:31:10.840Z,7.35
2022-12-26T08:33:38.020Z,8.48
2022-12-26T08:36:10.233Z,7.57
2022-12-26T08:38:37.844Z,8.45
2022-12-26T08:41:05.083Z,8.32
2022-12-26T08:44:03.117Z,7.60
2022-12-26T08:46:21.335Z,7.38
2022-12-26T08:48:49.438Z,8.05
2022-12-26T08:51:19.828Z,7.38
2022-12-26T08:53:49.760Z,9.07
2022-12-26T08:56:20.480Z,10.38
2022-12-26T08:58:48.066Z,10.75
2022-12-26T09:01:18.850Z,9.50
2022-12-26T09:03:46.806Z,9.73
2022-12-26T09:06:15.337Z,8.63
2022-12-26T09:08:43.352Z,8.15
2022-12-26T09:11:13.697Z,8.00
2022-12-26T09:13:42.678Z,8.27
2022-12-26T09:16:13.596Z,8.25
2022-12-26T09:18:41.295Z,8.75
2022-12-26T09:21:10.099Z,8.55
2022-12-26T09:23:38.488Z,7.95
2022-12-26T09:26:07.941Z,6.75
2022-12-26T09:28:35.967Z,7.15
2022-12-26T09:31:10.440Z,7.18
2022-12-26T09:33:39.150Z,7.35
2022-12-26T09:36:15.394Z,7.07
2022-12-26T09:38:44.064Z,8.32
2022-12-26T09:41:39.599Z,8.38
2022-12-26T09:47:14.873Z,8.18
2022-12-26T09:49:53.869Z,8.80
2022-12-26T09:52:37.048Z,8.32
2022-12-26T09:55:28.097Z,7.80
2022-12-26T09:57:59.855Z,8.35
2022-12-26T10:00:34.243Z,11.60
2022-12-26T10:03:02.089Z,9.43
2022-12-26T10:05:39.464Z,9.05
2022-12-26T10:08:23.564Z,11.10
2022-12-26T10:11:02.179Z,8.75
2022-12-26T10:13:38.982Z,9.05
2022-12-26T10:16:16.544Z,8.40
2022-12-26T10:19:03.472Z,8.13
2022-12-26T10:22:19.307Z,7.75
2022-12-26T10:24:48.237Z,7.97
2022-12-26T10:27:18.125Z,8.18
2022-12-26T10:30:02.227Z,7.75
2022-12-26T10:32:37.742Z,8.43
2022-12-26T10:35:29.020Z,8.35
2022-12-26T10:38:00.008Z,8.30
2022-12-26T10:40:36.935Z,8.82
2022-12-26T10:43:30.412Z,8.13
2022-12-26T10:46:23.781Z,8.52
2022-12-26T10:48:50.917Z,8.10
2022-12-26T10:51:18.210Z,9.88
2022-12-26T10:53:51.839Z,9.55
2022-12-26T10:56:21.362Z,8.77
2022-12-26T10:59:00.251Z,7.75
2022-12-26T11:01:40.285Z,8.40
2022-12-26T11:04:18.808Z,8.75
2022-12-26T11:06:52.756Z,8.23
2022-12-26T11:09:47.368Z,8.82
2022-12-26T11:12:30.710Z,11.65
2022-12-26T11:15:01.772Z,11.38
2022-12-26T11:17:36.349Z,10.43
2022-12-26T11:20:32.632Z,9.13
2022-12-26T11:23:25.188Z,10.32
2022-12-26T11:25:59.814Z,11.85
2022-12-26T11:28:33.947Z,11.65
2022-12-26T11:31:06.502Z,10.20
2022-12-26T11:33:41.650Z,10.02
2022-12-26T11:36:22.996Z,8.63
2022-12-26T11:38:58.614Z,8.75
2022-12-26T11:41:40.229Z,9.25
2022-12-26T11:44:29.003Z,8.70
2022-12-26T11:47:13.645Z,10.07
2022-12-26T11:52:55.588Z,7.63
2022-12-26T11:55:22.699Z,8.48
2022-12-26T11:58:06.472Z,9.23
2022-12-26T12:00:35.953Z,8.83
2022-12-26T12:03:12.443Z,7.95
2022-12-26T12:05:46.000Z,8.10
2022-12-26T12:08:31.908Z,7.72
2022-12-26T12:11:03.941Z,8.05
2022-12-26T12:13:44.815Z,8.93
2022-12-26T12:16:36.934Z,8.25
2022-12-26T12:19:28.209Z,7.57
2022-12-26T12:22:22.784Z,7.32
2022-12-26T12:24:52.928Z,7.35
2022-12-26T12:27:30.692Z,7.50
2022-12-26T12:30:16.151Z,6.70
2022-12-26T12:33:12.935Z,7.20
2022-12-26T12:36:38.196Z,7.20
2022-12-26T12:39:25.839Z,6.90
2022-12-26T12:42:07.205Z,7.10
2022-12-26T12:44:56.543Z,6.88
2022-12-26T12:48:00.469Z,12.00
2022-12-26T12:50:56.177Z,14.63
2022-12-26T12:53:53.374Z,8.73
2022-12-26T12:56:42.821Z,7.03
2022-12-26T12:59:34.828Z,6.63
2022-12-26T13:02:20.225Z,7.07
2022-12-26T13:04:57.866Z,7.38
2022-12-26T13:07:33.187Z,6.32
2022-12-26T13:10:04.368Z,8.07
2022-12-26T13:12:39.323Z,6.72
2022-12-26T13:15:15.910Z,8.43
2022-12-26T13:17:53.776Z,8.25
2022-12-26T13:20:28.859Z,7.55
2022-12-26T13:23:20.389Z,7.38
2022-12-26T13:26:28.165Z,8.07
2022-12-26T13:29:06.672Z,8.05
2022-12-26T13:31:40.005Z,8.15
2022-12-26T13:34:15.365Z,8.23
2022-12-26T13:36:46.051Z,7.07
2022-12-26T13:39:17.123Z,6.88
2022-12-26T13:42:27.168Z,6.82
2022-12-26T13:44:54.929Z,7.30
2022-12-26T13:47:39.591Z,7.82
2022-12-26T13:52:53.432Z,16.63
2022-12-26T13:55:31.814Z,11.70
2022-12-26T13:58:21.657Z,8.38
2022-12-26T14:00:50.868Z,7.65
2022-12-26T14:03:44.477Z,7.82
2022-12-26T14:06:31.471Z,7.80
2022-12-26T14:09:10.648Z,6.82
2022-12-26T14:11:52.670Z,7.15
2022-12-26T14:14:37.826Z,7.47
2022-12-26T14:17:26.812Z,7.85
2022-12-26T14:20:20.240Z,7.32
2022-12-26T14:23:11.938Z,7.78
2022-12-26T14:25:51.000Z,6.78
2022-12-26T14:28:33.361Z,7.50
2022-12-26T14:31:38.674Z,7.72
2022-12-26T14:37:11.351Z,8.57
2022-12-26T14:40:17.000Z,8.95
2022-12-26T14:43:11.187Z,7.78
2022-12-26T14:45:40.521Z,7.30
2022-12-26T14:48:16.468Z,7.63
2022-12-26T14:50:49.212Z,8.63
2022-12-26T14:53:25.134Z,7.68
2022-12-26T14:55:59.415Z,8.35
2022-12-26T15:01:12.999Z,7.45
2022-12-26T15:04:07.405Z,7.95
2022-12-26T15:07:25.203Z,9.07
2022-12-26T15:10:05.181Z,7.95
2022-12-26T15:12:58.921Z,8.00
2022-12-26T15:15:32.707Z,9.80
2022-12-26T15:18:42.746Z,8.50
2022-12-26T15:21:56.487Z,8.80
2022-12-26T15:28:16.102Z,11.38
2022-12-26T15:31:02.153Z,27.48
2022-12-26T15:33:42.856Z,10.85
2022-12-26T15:36:41.087Z,7.82
2022-12-26T15:39:14.152Z,7.18
2022-12-26T15:42:07.689Z,7.32
2022-12-26T15:45:11.936Z,7.40
2022-12-26T15:47:57.038Z,7.25
2022-12-26T15:50:29.744Z,7.25
2022-12-26T15:53:18.011Z,8.60
2022-12-26T15:56:22.749Z,7.07
2022-12-26T15:59:29.358Z,6.38
2022-12-26T16:01:58.424Z,6.50
2022-12-26T16:04:38.631Z,8.02
2022-12-26T16:07:56.291Z,6.93
2022-12-26T16:10:26.329Z,7.35
2022-12-26T16:13:10.916Z,6.75
2022-12-26T16:15:58.356Z,6.35
2022-12-26T16:18:33.431Z,6.95
2022-12-26T16:21:23.586Z,7.22
2022-12-26T16:23:53.214Z,7.85
2022-12-26T16:26:31.577Z,7.80
2022-12-26T16:29:00.596Z,8.35
2022-12-26T16:31:31.341Z,8.60
2022-12-26T16:34:00.158Z,7.78
2022-12-26T16:36:30.329Z,6.65
2022-12-26T16:38:57.386Z,6.75
2022-12-26T16:41:32.893Z,6.88
2022-12-26T16:44:31.896Z,6.20
2022-12-26T16:47:06.161Z,6.85
2022-12-26T16:52:01.080Z,5.20
2022-12-26T16:54:40.339Z,5.70
2022-12-26T16:57:09.757Z,5.20
2022-12-26T16:59:49.718Z,4.45
2022-12-26T17:02:29.355Z,4.72
2022-12-26T17:05:03.844Z,5.75
2022-12-26T17:10:00.847Z,7.57
2022-12-26T17:12:30.624Z,5.50
2022-12-26T17:15:00.809Z,4.40
2022-12-26T17:17:34.510Z,5.20
2022-12-26T17:20:23.257Z,5.30
2022-12-26T17:22:51.884Z,6.80
2022-12-26T17:25:29.704Z,5.35
2022-12-26T17:28:09.191Z,5.80
2022-12-26T17:30:48.779Z,5.93
2022-12-26T17:33:26.301Z,4.47
2022-12-26T17:38:45.833Z,4.32
2022-12-26T17:41:17.683Z,4.55
2022-12-26T17:43:46.364Z,4.85
2022-12-26T17:46:17.706Z,4.75
2022-12-26T17:48:45.181Z,4.50
2022-12-26T17:51:17.851Z,4.93
2022-12-26T17:53:50.746Z,5.32
2022-12-26T17:56:21.291Z,7.50
2022-12-26T17:58:49.544Z,6.95
2022-12-26T18:01:21.005Z,6.60
2022-12-26T18:03:49.043Z,6.32
2022-12-26T18:06:17.313Z,5.88
2022-12-26T18:08:45.296Z,5.88
2022-12-26T18:11:14.216Z,6.97
2022-12-26T18:13:41.805Z,7.10
2022-12-26T18:16:16.786Z,7.50
2022-12-26T18:18:45.844Z,7.20
2022-12-26T18:21:15.226Z,8.38
2022-12-26T18:23:42.579Z,8.52
2022-12-26T18:26:20.501Z,9.52
2022-12-26T18:28:50.080Z,8.88
2022-12-26T18:31:17.323Z,8.18
2022-12-26T18:33:45.131Z,8.10
2022-12-26T18:36:16.607Z,7.47
2022-12-26T18:38:44.065Z,7.15
2022-12-26T18:41:16.200Z,7.50
2022-12-26T18:43:43.360Z,6.80
2022-12-26T18:46:25.361Z,6.70
2022-12-26T18:48:59.788Z,5.47
2022-12-26T18:53:55.053Z,5.78
2022-12-26T18:56:23.035Z,5.97
2022-12-26T18:58:57.451Z,5.63
2022-12-26T19:01:25.366Z,5.10
2022-12-26T19:03:53.975Z,4.60
2022-12-26T19:06:26.811Z,4.00
2022-12-26T19:08:54.280Z,4.75
2022-12-26T19:11:22.053Z,4.22
2022-12-26T19:13:49.187Z,3.95
2022-12-26T19:16:16.380Z,4.38
2022-12-26T19:18:43.494Z,4.22
2022-12-26T19:21:15.254Z,4.40
2022-12-26T19:23:46.506Z,5.43
2022-12-26T19:26:16.934Z,7.32
2022-12-26T19:28:44.263Z,5.50
2022-12-26T19:31:13.770Z,5.95
2022-12-26T19:33:41.236Z,5.05
2022-12-26T19:36:09.336Z,4.97
2022-12-26T19:38:37.028Z,5.35
2022-12-26T19:41:06.143Z,5.53
2022-12-26T19:43:33.591Z,4.97
2022-12-26T19:46:08.410Z,4.70
2022-12-26T19:48:37.007Z,4.63
2022-12-26T19:51:07.279Z,5.25
2022-12-26T19:53:35.603Z,5.00
2022-12-26T19:56:18.206Z,4.85
2022-12-26T19:58:45.916Z,5.45
2022-12-26T20:01:15.777Z,5.47
2022-12-26T20:03:43.490Z,6.35
2022-12-26T20:06:22.643Z,6.68
2022-12-26T20:08:51.147Z,6.38
2022-12-26T20:11:21.491Z,7.50
2022-12-26T20:13:49.097Z,7.75
2022-12-26T20:16:45.896Z,7.25
2022-12-26T20:19:05.984Z,7.28
2022-12-26T20:21:33.114Z,7.38
2022-12-26T20:24:01.660Z,7.78
2022-12-26T20:26:29.890Z,9.52
2022-12-26T20:29:01.921Z,7.68
2022-12-26T20:31:30.671Z,8.05
2022-12-26T20:33:58.132Z,6.75
2022-12-26T20:36:35.503Z,6.00
2022-12-26T20:39:06.111Z,5.82
2022-12-26T20:41:34.997Z,5.78
2022-12-26T20:44:02.198Z,5.20
2022-12-26T20:46:32.364Z,5.60
2022-12-26T20:49:02.344Z,5.82
2022-12-26T20:51:37.241Z,6.70
2022-12-26T20:54:06.665Z,5.70
2022-12-26T20:56:34.805Z,6.05
2022-12-26T20:59:01.969Z,5.95
2022-12-26T21:01:29.524Z,6.30
2022-12-26T21:03:57.944Z,8.57
2022-12-26T21:06:30.675Z,8.02
2022-12-26T21:08:58.194Z,8.80
2022-12-26T21:11:34.758Z,8.30
2022-12-26T21:14:08.063Z,8.05
2022-12-26T21:16:38.072Z,8.23
2022-12-26T21:19:12.285Z,7.07
2022-12-26T21:21:44.276Z,7.90
2022-12-26T21:24:21.440Z,7.78
2022-12-26T21:26:48.905Z,7.82
2022-12-26T21:29:19.882Z,6.97
2022-12-26T21:31:47.322Z,7.47
2022-12-26T21:34:16.497Z,8.07
2022-12-26T21:37:04.350Z,8.85
2022-12-26T21:39:32.861Z,7.85
2022-12-26T21:42:00.900Z,8.35
2022-12-26T21:44:28.264Z,8.23
2022-12-26T21:46:55.341Z,8.82
2022-12-26T21:49:22.402Z,8.48
2022-12-26T21:51:49.509Z,8.73
2022-12-26T21:54:34.933Z,8.18
2022-12-26T21:57:02.051Z,7.20
2022-12-26T21:59:47.522Z,7.72
2022-12-26T22:02:34.067Z,6.65
2022-12-26T22:05:02.038Z,6.60
2022-12-26T22:07:29.263Z,5.93
2022-12-26T22:09:56.538Z,5.90
2022-12-26T22:12:42.533Z,6.95
2022-12-26T22:15:30.943Z,6.28
2022-12-26T22:17:58.386Z,7.20
2022-12-26T22:20:25.816Z,6.63
2022-12-26T22:22:53.005Z,6.70
2022-12-26T22:25:20.227Z,6.65
2022-12-26T22:27:47.369Z,6.40
2022-12-26T22:30:14.567Z,6.50
2022-12-26T22:32:41.713Z,5.40
2022-12-26T22:35:13.197Z,5.22
2022-12-26T22:37:43.685Z,6.53
2022-12-26T22:40:11.582Z,5.35
2022-12-26T22:42:38.629Z,6.00
2022-12-26T22:45:06.113Z,5.10
2022-12-26T22:47:33.227Z,5.65
2022-12-26T22:50:00.274Z,5.00
2022-12-26T22:52:27.366Z,4.72
2022-12-26T22:54:54.462Z,4.03
2022-12-26T22:57:22.771Z,3.80
2022-12-26T23:02:37.097Z,3.50
2022-12-26T23:05:04.821Z,3.40
2022-12-26T23:07:32.301Z,3.03
2022-12-26T23:10:00.551Z,2.53
2022-12-26T23:12:43.318Z,2.08
2022-12-26T23:15:13.556Z,2.50
2022-12-26T23:18:01.655Z,2.35
2022-12-26T23:20:50.119Z,2.47
2022-12-26T23:23:17.539Z,2.00
2022-12-26T23:25:44.607Z,2.20
2022-12-26T23:28:30.349Z,1.95
2022-12-26T23:30:57.484Z,2.25
2022-12-26T23:33:25.419Z,2.08
2022-12-26T23:35:52.480Z,3.00
2022-12-26T23:38:19.607Z,2.60
2022-12-26T23:40:46.671Z,2.80
2022-12-26T23:43:13.831Z,2.38
2022-12-26T23:45:44.800Z,2.83
2022-12-26T23:48:13.077Z,3.15
2022-12-26T23:50:40.314Z,2.60
2022-12-26T23:53:07.583Z,2.58
2022-12-26T23:55:34.683Z,2.75
2022-12-26T23:58:01.813Z,3.53
